createdAt,value
2024-05-09T00:00:42.753Z,99.99
2024-05-09T00:01:42.566Z,99.99
2024-05-09T00:02:42.486Z,99.99
2024-05-09T00:03:42.577Z,99.99
2024-05-09T00:04:42.527Z,99.99
2024-05-09T00:05:42.997Z,99.99
2024-05-09T00:06:42.443Z,99.99
2024-05-09T00:07:42.525Z,99.99
2024-05-09T00:08:42.467Z,99.99
2024-05-09T00:09:42.424Z,99.99
2024-05-09T00:10:42.456Z,99.99
2024-05-09T00:11:42.493Z,99.99
2024-05-09T00:12:42.379Z,99.99
2024-05-09T00:13:42.450Z,99.99
2024-05-09T00:14:42.357Z,99.99
2024-05-09T00:15:42.370Z,99.84
2024-05-09T00:16:42.341Z,99.99
2024-05-09T00:17:42.682Z,99.93
2024-05-09T00:18:42.414Z,99.99
2024-05-09T00:19:42.418Z,99.99
2024-05-09T00:20:42.359Z,99.99
2024-05-09T00:21:42.281Z,99.99
2024-05-09T00:22:42.313Z,99.99
2024-05-09T00:23:42.330Z,99.99
2024-05-09T00:24:42.254Z,99.99
2024-05-09T00:25:42.352Z,99.99
2024-05-09T00:26:42.282Z,99.99
2024-05-09T00:27:42.246Z,99.99
2024-05-09T00:28:42.223Z,99.99
2024-05-09T00:29:42.211Z,99.99
2024-05-09T00:30:42.246Z,99.99
2024-05-09T00:31:42.210Z,99.84
2024-05-09T00:32:42.291Z,99.99
2024-05-09T00:33:42.312Z,99.99
2024-05-09T00:34:42.223Z,99.99
2024-05-09T00:35:42.201Z,99.99
2024-05-09T00:36:42.122Z,99.99
2024-05-09T00:37:42.397Z,99.98
2024-05-09T00:38:42.167Z,99.99
2024-05-09T00:39:42.089Z,99.99
2024-05-09T00:40:43.524Z,99.99
2024-05-09T00:41:42.080Z,99.99
2024-05-09T00:42:42.044Z,99.88
2024-05-09T00:43:42.046Z,99.99
2024-05-09T00:44:42.036Z,99.99
2024-05-09T00:45:42.097Z,99.99
2024-05-09T00:46:42.016Z,99.99
2024-05-09T00:47:42.204Z,99.99
2024-05-09T00:48:42.076Z,99.99
2024-05-09T00:49:42.224Z,99.99
2024-05-09T00:50:42.387Z,99.99
2024-05-09T00:51:41.955Z,99.99
2024-05-09T00:52:41.983Z,99.99
2024-05-09T00:53:41.994Z,99.99
2024-05-09T00:54:41.924Z,99.99
2024-05-09T00:55:41.971Z,99.99
2024-05-09T00:56:41.931Z,99.99
2024-05-09T00:57:41.893Z,99.99
2024-05-09T00:58:41.890Z,99.99
2024-05-09T00:59:41.913Z,99.99
2024-05-09T01:00:42.116Z,99.99
2024-05-09T01:01:42.051Z,99.99
2024-05-09T01:02:41.966Z,99.99
2024-05-09T01:03:41.949Z,99.99
2024-05-09T01:04:41.882Z,99.99
2024-05-09T01:05:42.347Z,99.99
2024-05-09T01:06:41.844Z,99.99
2024-05-09T01:07:41.809Z,99.99
2024-05-09T01:08:41.811Z,99.99
2024-05-09T01:09:41.760Z,99.99
2024-05-09T01:10:44.170Z,99.99
2024-05-09T01:11:41.821Z,99.99
2024-05-09T01:12:41.732Z,99.99
2024-05-09T01:13:41.744Z,99.99
2024-05-09T01:14:41.706Z,99.99
2024-05-09T01:15:41.697Z,99.99
2024-05-09T01:16:41.715Z,99.99
2024-05-09T01:17:41.953Z,99.99
2024-05-09T01:18:41.713Z,99.99
2024-05-09T01:19:41.733Z,99.99
2024-05-09T01:20:44.181Z,99.99
2024-05-09T01:21:41.640Z,99.99
2024-05-09T01:22:41.642Z,99.99
2024-05-09T01:23:41.640Z,99.99
2024-05-09T01:24:41.604Z,99.99
2024-05-09T01:25:41.605Z,99.99
2024-05-09T01:26:41.681Z,99.99
2024-05-09T01:27:41.603Z,99.99
2024-05-09T01:28:41.601Z,99.99
2024-05-09T01:29:41.559Z,99.99
2024-05-09T01:30:41.561Z,99.99
2024-05-09T01:31:41.570Z,99.99
2024-05-09T01:32:41.630Z,99.99
2024-05-09T01:33:41.814Z,99.99
2024-05-09T01:34:41.488Z,99.99
2024-05-09T01:35:42.750Z,99.99
2024-05-09T01:36:41.509Z,99.99
2024-05-09T01:37:41.495Z,99.99
2024-05-09T01:38:41.510Z,99.99
2024-05-09T01:39:41.435Z,99.99
2024-05-09T01:40:41.435Z,99.99
2024-05-09T01:41:41.439Z,99.99
2024-05-09T01:42:41.442Z,99.99
2024-05-09T01:43:41.409Z,99.99
2024-05-09T01:44:41.402Z,99.99
2024-05-09T01:45:41.677Z,99.99
2024-05-09T01:46:41.376Z,99.99
2024-05-09T01:47:41.710Z,99.99
2024-05-09T01:48:41.448Z,99.99
2024-05-09T01:49:41.451Z,99.99
2024-05-09T01:50:43.001Z,99.99
2024-05-09T01:51:41.343Z,99.99
2024-05-09T01:52:41.304Z,99.98
2024-05-09T01:53:41.325Z,99.99
2024-05-09T01:54:41.269Z,99.99
2024-05-09T01:55:41.315Z,99.99
2024-05-09T01:56:41.284Z,99.99
2024-05-09T01:57:41.275Z,99.99
2024-05-09T01:58:41.248Z,99.99
2024-05-09T01:59:41.291Z,99.99
2024-05-09T02:00:42.890Z,99.99
2024-05-09T02:01:56.023Z,99.99
2024-05-09T02:02:42.246Z,99.98
2024-05-09T02:03:41.356Z,99.87
2024-05-09T02:04:41.291Z,99.87
2024-05-09T02:05:41.269Z,99.99
2024-05-09T02:06:41.166Z,99.77
2024-05-09T02:07:41.126Z,99.56
2024-05-09T02:08:41.188Z,99.36
2024-05-09T02:09:41.125Z,99.61
2024-05-09T02:10:41.162Z,99.36
2024-05-09T02:11:41.257Z,99.66
2024-05-09T02:12:41.109Z,99.56
2024-05-09T02:13:41.083Z,99.46
2024-05-09T02:14:41.071Z,99.98
2024-05-09T02:15:41.076Z,99.77
2024-05-09T02:16:41.097Z,99.82
2024-05-09T02:17:41.186Z,99.87
2024-05-09T02:18:41.126Z,99.87
2024-05-09T02:19:41.024Z,99.77
2024-05-09T02:20:41.479Z,99.99
2024-05-09T02:21:40.990Z,99.98
2024-05-09T02:22:40.998Z,99.77
2024-05-09T02:23:41.032Z,99.91
2024-05-09T02:24:40.955Z,99.82
2024-05-09T02:25:40.955Z,99.71
2024-05-09T02:26:41.005Z,99.20
2024-05-09T02:27:40.935Z,99.61
2024-05-09T02:28:40.943Z,99.82
2024-05-09T02:29:40.959Z,99.51
2024-05-09T02:30:42.283Z,99.91
2024-05-09T02:31:40.870Z,99.46
2024-05-09T02:32:41.011Z,99.51
2024-05-09T02:33:41.149Z,99.82
2024-05-09T02:34:40.842Z,99.82
2024-05-09T02:35:40.943Z,99.41
2024-05-09T02:36:40.846Z,99.91
2024-05-09T02:37:40.818Z,99.41
2024-05-09T02:38:40.876Z,99.41
2024-05-09T02:39:40.804Z,99.51
2024-05-09T02:40:41.080Z,99.71
2024-05-09T02:41:40.763Z,99.51
2024-05-09T02:42:40.754Z,99.71
2024-05-09T02:43:40.746Z,99.61
2024-05-09T02:44:40.726Z,99.71
2024-05-09T02:45:40.874Z,99.61
2024-05-09T02:46:40.767Z,99.71
2024-05-09T02:47:40.842Z,99.66
2024-05-09T02:48:40.761Z,99.76
2024-05-09T02:49:40.716Z,99.35
2024-05-09T02:50:41.106Z,99.76
2024-05-09T02:51:40.662Z,99.91
2024-05-09T02:52:40.665Z,99.96
2024-05-09T02:53:40.720Z,99.96
2024-05-09T02:54:40.623Z,99.99
2024-05-09T02:55:40.649Z,99.99
2024-05-09T02:56:40.652Z,99.96
2024-05-09T02:57:40.603Z,99.99
2024-05-09T02:58:40.577Z,99.76
2024-05-09T02:59:40.588Z,99.86
2024-05-09T03:00:42.433Z,99.86
2024-05-09T03:01:41.467Z,99.96
2024-05-09T03:02:40.634Z,99.96
2024-05-09T03:03:40.678Z,99.99
2024-05-09T03:04:40.544Z,99.99
2024-05-09T03:05:40.914Z,99.86
2024-05-09T03:06:40.492Z,99.96
2024-05-09T03:07:40.515Z,99.86
2024-05-09T03:08:40.493Z,99.99
2024-05-09T03:09:40.464Z,99.96
2024-05-09T03:10:40.527Z,99.99
2024-05-09T03:11:40.696Z,99.86
2024-05-09T03:12:40.528Z,99.96
2024-05-09T03:13:40.422Z,99.66
2024-05-09T03:14:40.438Z,99.86
2024-05-09T03:15:40.401Z,99.76
2024-05-09T03:16:40.382Z,99.96
2024-05-09T03:17:40.523Z,99.96
2024-05-09T03:18:40.421Z,99.66
2024-05-09T03:19:40.388Z,99.99
2024-05-09T03:20:40.622Z,99.99
2024-05-09T03:21:40.352Z,99.76
2024-05-09T03:22:40.327Z,99.96
2024-05-09T03:23:40.493Z,99.96
2024-05-09T03:24:40.298Z,99.91
2024-05-09T03:25:40.349Z,99.96
2024-05-09T03:26:40.327Z,99.76
2024-05-09T03:27:40.265Z,99.99
2024-05-09T03:28:40.250Z,99.99
2024-05-09T03:29:40.304Z,99.86
2024-05-09T03:30:42.703Z,99.91
2024-05-09T03:31:40.377Z,99.99
2024-05-09T03:32:40.348Z,99.99
2024-05-09T03:33:40.568Z,99.80
2024-05-09T03:34:40.191Z,99.80
2024-05-09T03:35:40.262Z,99.91
2024-05-09T03:36:40.161Z,99.99
2024-05-09T03:37:40.225Z,99.99
2024-05-09T03:38:40.179Z,99.99
2024-05-09T03:39:40.155Z,99.91
2024-05-09T03:40:40.138Z,99.91
2024-05-09T03:41:40.154Z,99.99
2024-05-09T03:42:40.104Z,99.99
2024-05-09T03:43:40.140Z,99.99
2024-05-09T03:44:40.206Z,99.99
2024-05-09T03:45:40.091Z,99.91
2024-05-09T03:46:40.054Z,99.80
2024-05-09T03:47:40.245Z,99.99
2024-05-09T03:48:40.126Z,99.99
2024-05-09T03:49:40.064Z,99.85
2024-05-09T03:50:40.208Z,99.99
2024-05-09T03:51:40.028Z,99.80
2024-05-09T03:52:39.998Z,99.99
2024-05-09T03:53:40.101Z,99.99
2024-05-09T03:54:39.967Z,99.99
2024-05-09T03:55:39.968Z,99.95
2024-05-09T03:56:40.038Z,99.85
2024-05-09T03:57:39.972Z,99.70
2024-05-09T03:58:39.964Z,99.60
2024-05-09T03:59:39.949Z,99.99
2024-05-09T04:00:40.457Z,99.91
2024-05-09T04:01:39.989Z,99.99
2024-05-09T04:02:39.988Z,99.99
2024-05-09T04:03:40.094Z,99.99
2024-05-09T04:04:39.921Z,99.99
2024-05-09T04:05:41.053Z,99.99
2024-05-09T04:06:39.852Z,99.99
2024-05-09T04:07:39.831Z,99.99
2024-05-09T04:08:39.950Z,99.99
2024-05-09T04:09:39.825Z,99.99
2024-05-09T04:10:39.803Z,99.99
2024-05-09T04:11:39.922Z,99.99
2024-05-09T04:12:39.787Z,99.99
2024-05-09T04:13:39.797Z,99.99
2024-05-09T04:14:39.819Z,99.99
2024-05-09T04:15:39.783Z,99.95
2024-05-09T04:16:39.732Z,99.70
2024-05-09T04:17:39.959Z,99.99
2024-05-09T04:18:39.874Z,99.50
2024-05-09T04:19:39.857Z,99.80
2024-05-09T04:20:41.125Z,99.85
2024-05-09T04:21:39.707Z,99.91
2024-05-09T04:22:39.669Z,99.91
2024-05-09T04:23:39.781Z,99.99
2024-05-09T04:24:39.651Z,99.80
2024-05-09T04:25:39.642Z,99.80
2024-05-09T04:26:39.732Z,99.99
2024-05-09T04:27:39.640Z,99.99
2024-05-09T04:28:39.670Z,99.91
2024-05-09T04:29:39.694Z,99.91
2024-05-09T04:30:41.426Z,99.91
2024-05-09T04:31:39.573Z,99.96
2024-05-09T04:32:39.668Z,99.86
2024-05-09T04:33:39.742Z,99.96
2024-05-09T04:34:39.607Z,99.99
2024-05-09T04:35:39.835Z,99.99
2024-05-09T04:36:42.469Z,99.99
2024-05-09T04:37:39.507Z,99.99
2024-05-09T04:38:39.638Z,99.86
2024-05-09T04:39:39.486Z,99.99
2024-05-09T04:40:39.533Z,99.76
2024-05-09T04:41:39.517Z,99.91
2024-05-09T04:42:39.475Z,99.61
2024-05-09T04:43:39.454Z,99.82
2024-05-09T04:44:39.494Z,99.91
2024-05-09T04:45:39.470Z,99.99
2024-05-09T04:46:39.410Z,99.99
2024-05-09T04:47:39.551Z,99.82
2024-05-09T04:48:39.513Z,99.99
2024-05-09T04:49:39.448Z,99.99
2024-05-09T04:50:40.012Z,99.99
2024-05-09T04:51:39.360Z,99.99
2024-05-09T04:52:39.465Z,99.99
2024-05-09T04:53:39.511Z,99.99
2024-05-09T04:54:39.341Z,99.99
2024-05-09T04:55:39.966Z,99.99
2024-05-09T04:56:39.362Z,99.99
2024-05-09T04:57:39.297Z,99.99
2024-05-09T04:58:39.306Z,99.99
2024-05-09T04:59:39.336Z,99.99
2024-05-09T05:00:40.555Z,99.99
2024-05-09T05:01:39.268Z,99.99
2024-05-09T05:02:39.349Z,99.99
2024-05-09T05:03:39.579Z,99.99
2024-05-09T05:04:39.242Z,99.99
2024-05-09T05:05:39.276Z,99.99
2024-05-09T05:06:39.192Z,99.99
2024-05-09T05:07:39.193Z,99.99
2024-05-09T05:08:39.324Z,99.99
2024-05-09T05:09:39.165Z,99.99
2024-05-09T05:10:39.182Z,99.99
2024-05-09T05:11:39.246Z,99.99
2024-05-09T05:12:39.120Z,99.99
2024-05-09T05:13:41.347Z,99.99
2024-05-09T05:14:39.162Z,99.99
2024-05-09T05:15:39.104Z,99.99
2024-05-09T05:16:39.101Z,99.98
2024-05-09T05:17:39.331Z,99.99
2024-05-09T05:18:39.122Z,99.99
2024-05-09T05:19:39.207Z,99.98
2024-05-09T05:20:39.066Z,99.99
2024-05-09T05:21:39.052Z,99.99
2024-05-09T05:22:39.031Z,99.99
2024-05-09T05:23:39.116Z,99.99
2024-05-09T05:24:39.034Z,99.99
2024-05-09T05:25:38.989Z,99.84
2024-05-09T05:26:39.056Z,99.89
2024-05-09T05:27:38.992Z,99.22
2024-05-09T05:28:38.963Z,99.43
2024-05-09T05:29:38.980Z,99.84
2024-05-09T05:30:38.996Z,99.43
2024-05-09T05:31:38.967Z,99.84
2024-05-09T05:32:39.068Z,99.84
2024-05-09T05:33:39.147Z,99.73
2024-05-09T05:34:38.898Z,99.79
2024-05-09T05:35:38.904Z,99.63
2024-05-09T05:36:38.863Z,99.38
2024-05-09T05:37:38.859Z,99.79
2024-05-09T05:38:38.909Z,99.48
2024-05-09T05:39:38.835Z,99.11
2024-05-09T05:40:40.100Z,99.11
2024-05-09T05:41:38.912Z,99.22
2024-05-09T05:42:38.799Z,99.48
2024-05-09T05:43:38.805Z,99.68
2024-05-09T05:44:38.838Z,99.38
2024-05-09T05:45:39.281Z,99.27
2024-05-09T05:46:38.806Z,98.97
2024-05-09T05:47:38.936Z,99.27
2024-05-09T05:48:38.894Z,98.86
2024-05-09T05:49:38.897Z,98.86
2024-05-09T05:50:39.107Z,98.82
2024-05-09T05:51:38.728Z,98.41
2024-05-09T05:52:38.688Z,98.31
2024-05-09T05:53:38.905Z,98.41
2024-05-09T05:54:38.667Z,98.52
2024-05-09T05:55:38.759Z,98.57
2024-05-09T05:56:38.712Z,98.36
2024-05-09T05:57:38.648Z,98.43
2024-05-09T05:58:38.622Z,98.43
2024-05-09T05:59:38.806Z,98.32
2024-05-09T06:00:40.307Z,97.81
2024-05-09T06:01:38.664Z,97.77
2024-05-09T06:02:38.640Z,97.25
2024-05-09T06:03:38.945Z,96.84
2024-05-09T06:04:38.596Z,96.84
2024-05-09T06:05:38.676Z,97.00
2024-05-09T06:06:38.568Z,96.70
2024-05-09T06:07:38.560Z,96.70
2024-05-09T06:08:38.576Z,96.55
2024-05-09T06:09:38.518Z,95.13
2024-05-09T06:10:40.639Z,95.53
2024-05-09T06:11:38.556Z,95.78
2024-05-09T06:12:38.535Z,95.84
2024-05-09T06:13:38.465Z,95.03
2024-05-09T06:14:38.527Z,94.72
2024-05-09T06:15:38.445Z,94.76
2024-05-09T06:16:38.436Z,95.33
2024-05-09T06:17:38.642Z,95.43
2024-05-09T06:18:38.515Z,95.13
2024-05-09T06:19:38.492Z,94.72
2024-05-09T06:20:38.647Z,94.92
2024-05-09T06:21:38.387Z,94.31
2024-05-09T06:22:47.458Z,94.87
2024-05-09T06:23:38.489Z,94.92
2024-05-09T06:24:38.349Z,95.13
2024-05-09T06:25:38.520Z,95.43
2024-05-09T06:26:38.371Z,95.53
2024-05-09T06:27:38.322Z,95.13
2024-05-09T06:28:38.333Z,95.53
2024-05-09T06:29:38.395Z,95.64
2024-05-09T06:30:40.987Z,95.84
2024-05-09T06:31:38.271Z,95.74
2024-05-09T06:32:38.519Z,95.33
2024-05-09T06:33:38.409Z,94.68
2024-05-09T06:34:38.334Z,94.07
2024-05-09T06:35:38.394Z,93.76
2024-05-09T06:36:38.220Z,93.96
2024-05-09T06:37:38.235Z,93.62
2024-05-09T06:38:38.419Z,93.71
2024-05-09T06:39:38.197Z,93.71
2024-05-09T06:40:40.024Z,93.66
2024-05-09T06:41:38.241Z,93.62
2024-05-09T06:42:38.167Z,93.51
2024-05-09T06:43:38.188Z,93.62
2024-05-09T06:44:38.165Z,93.92
2024-05-09T06:45:38.133Z,93.76
2024-05-09T06:46:38.118Z,93.86
2024-05-09T06:47:38.342Z,93.51
2024-05-09T06:48:38.217Z,94.12
2024-05-09T06:49:38.166Z,93.71
2024-05-09T06:50:39.511Z,94.02
2024-05-09T06:51:38.076Z,93.62
2024-05-09T06:52:38.061Z,93.71
2024-05-09T06:53:38.228Z,93.51
2024-05-09T06:54:38.032Z,93.51
2024-05-09T06:55:38.289Z,94.12
2024-05-09T06:56:38.062Z,94.88
2024-05-09T06:57:39.167Z,94.78
2024-05-09T06:58:37.991Z,95.45
2024-05-09T06:59:38.038Z,95.50
2024-05-09T07:00:40.538Z,94.38
2024-05-09T07:01:38.017Z,94.74
2024-05-09T07:02:38.176Z,93.83
2024-05-09T07:03:38.069Z,93.83
2024-05-09T07:04:38.123Z,92.71
2024-05-09T07:05:37.977Z,93.22
2024-05-09T07:06:37.954Z,93.32
2024-05-09T07:07:37.876Z,92.67
2024-05-09T07:08:37.971Z,93.52
2024-05-09T07:09:37.880Z,93.07
2024-05-09T07:10:38.268Z,93.48
2024-05-09T07:11:37.985Z,92.63
2024-05-09T07:12:37.848Z,92.58
2024-05-09T07:13:37.934Z,92.28
2024-05-09T07:14:38.572Z,91.22
2024-05-09T07:15:37.864Z,90.88
2024-05-09T07:16:37.790Z,90.77
2024-05-09T07:17:37.934Z,90.57
2024-05-09T07:18:37.980Z,90.16
2024-05-09T07:19:37.898Z,89.55
2024-05-09T07:20:37.851Z,89.35
2024-05-09T07:21:37.741Z,89.39
2024-05-09T07:22:37.748Z,89.76
2024-05-09T07:23:37.816Z,89.65
2024-05-09T07:24:37.700Z,88.84
2024-05-09T07:25:37.700Z,89.31
2024-05-09T07:26:37.818Z,89.77
2024-05-09T07:27:37.667Z,89.73
2024-05-09T07:28:37.676Z,88.68
2024-05-09T07:29:38.869Z,87.56
2024-05-09T07:30:37.632Z,87.22
2024-05-09T07:31:37.636Z,87.58
2024-05-09T07:32:37.806Z,86.93
2024-05-09T07:33:37.738Z,85.62
2024-05-09T07:34:37.724Z,83.84
2024-05-09T07:35:37.816Z,85.16
2024-05-09T07:36:37.579Z,85.31
2024-05-09T07:37:37.575Z,84.91
2024-05-09T07:38:37.744Z,86.08
2024-05-09T07:39:37.540Z,84.47
2024-05-09T07:40:37.532Z,84.47
2024-05-09T07:41:37.820Z,84.57
2024-05-09T07:42:37.511Z,84.33
2024-05-09T07:43:37.499Z,84.29
2024-05-09T07:44:37.553Z,83.48
2024-05-09T07:45:48.350Z,84.05
2024-05-09T07:47:47.323Z,82.37
2024-05-09T07:48:58.072Z,82.84
2024-05-09T07:53:14.289Z,82.25
2024-05-09T07:53:33.733Z,81.55
2024-05-09T07:53:43.865Z,81.01
2024-05-09T07:54:38.630Z,80.90
2024-05-09T07:55:37.562Z,80.60
2024-05-09T07:56:37.509Z,80.90
2024-05-09T07:57:37.458Z,79.69
2024-05-09T07:58:37.377Z,79.53
2024-05-09T07:59:38.010Z,80.24
2024-05-09T08:00:37.442Z,81.35
2024-05-09T08:01:37.562Z,81.35
2024-05-09T08:02:37.303Z,81.41
2024-05-09T08:03:37.529Z,80.87
2024-05-09T08:04:37.407Z,79.66
2024-05-09T08:05:37.433Z,78.63
2024-05-09T08:06:37.292Z,81.24
2024-05-09T08:07:37.240Z,81.21
2024-05-09T08:08:37.229Z,80.60
2024-05-09T08:09:38.415Z,81.04
2024-05-09T08:10:37.320Z,81.30
2024-05-09T08:11:37.224Z,81.07
2024-05-09T08:12:37.253Z,80.10
2024-05-09T08:13:37.214Z,81.01
2024-05-09T08:14:37.163Z,80.90
2024-05-09T08:15:37.210Z,80.02
2024-05-09T08:16:37.180Z,78.91
2024-05-09T08:17:37.191Z,79.16
2024-05-09T08:18:37.393Z,78.55
2024-05-09T08:19:37.138Z,78.65
2024-05-09T08:20:37.095Z,80.32
2024-05-09T08:21:37.111Z,80.08
2024-05-09T08:22:37.097Z,79.04
2024-05-09T08:23:37.066Z,79.14
2024-05-09T08:24:37.133Z,78.23
2024-05-09T08:25:37.039Z,78.60
2024-05-09T08:26:37.031Z,77.09
2024-05-09T08:27:37.091Z,77.23
2024-05-09T08:28:37.036Z,77.09
2024-05-09T08:29:37.018Z,76.19
2024-05-09T08:30:38.190Z,77.06
2024-05-09T08:31:37.003Z,78.03
2024-05-09T08:32:36.996Z,76.42
2024-05-09T08:33:37.317Z,75.11
2024-05-09T08:34:37.006Z,75.88
2024-05-09T08:35:36.954Z,73.97
2024-05-09T08:36:36.985Z,74.18
2024-05-09T08:37:39.911Z,73.61
2024-05-09T08:38:36.896Z,75.42
2024-05-09T08:39:36.977Z,75.18
2024-05-09T08:40:38.070Z,74.77
2024-05-09T08:41:36.866Z,76.04
2024-05-09T08:42:36.900Z,73.64
2024-05-09T08:43:39.871Z,74.64
2024-05-09T08:44:36.830Z,74.34
2024-05-09T08:45:36.955Z,74.54
2024-05-09T08:46:36.837Z,74.14
2024-05-09T08:47:36.998Z,74.20
2024-05-09T08:48:37.012Z,73.94
2024-05-09T08:49:37.791Z,72.56
2024-05-09T08:50:39.321Z,72.56
2024-05-09T08:51:36.811Z,71.53
2024-05-09T08:52:36.744Z,71.43
2024-05-09T08:53:36.737Z,71.93
2024-05-09T08:54:36.753Z,69.99
2024-05-09T08:55:40.452Z,68.59
2024-05-09T08:56:36.717Z,70.59
2024-05-09T08:57:36.744Z,69.93
2024-05-09T08:58:36.702Z,69.76
2024-05-09T08:59:36.682Z,70.26
2024-05-09T09:00:37.757Z,68.22
2024-05-09T09:01:37.995Z,70.62
2024-05-09T09:02:36.757Z,69.19
2024-05-09T09:03:37.014Z,67.69
2024-05-09T09:04:36.737Z,67.19
2024-05-09T09:05:37.019Z,68.29
2024-05-09T09:06:36.638Z,69.49
2024-05-09T09:07:36.614Z,67.79
2024-05-09T09:08:36.588Z,67.69
2024-05-09T09:09:36.609Z,69.19
2024-05-09T09:10:36.730Z,69.29
2024-05-09T09:11:36.556Z,67.66
2024-05-09T09:12:36.618Z,66.05
2024-05-09T09:13:36.554Z,67.76
2024-05-09T09:14:36.551Z,66.52
2024-05-09T09:15:36.595Z,65.12
2024-05-09T09:16:36.500Z,66.02
2024-05-09T09:17:36.649Z,66.32
2024-05-09T09:18:36.655Z,65.02
2024-05-09T09:19:36.535Z,67.86
2024-05-09T09:20:37.209Z,67.72
2024-05-09T09:21:36.511Z,67.43
2024-05-09T09:22:36.433Z,65.52
2024-05-09T09:23:36.419Z,66.02
2024-05-09T09:24:36.446Z,67.89
2024-05-09T09:25:36.383Z,64.89
2024-05-09T09:26:36.385Z,64.45
2024-05-09T09:27:36.410Z,66.16
2024-05-09T09:28:36.406Z,67.63
2024-05-09T09:29:36.350Z,64.72
2024-05-09T09:30:38.035Z,65.12
2024-05-09T09:31:36.357Z,65.92
2024-05-09T09:32:36.378Z,64.92
2024-05-09T09:33:36.825Z,64.99
2024-05-09T09:34:36.350Z,64.79
2024-05-09T09:35:36.310Z,65.29
2024-05-09T09:36:36.317Z,65.19
2024-05-09T09:37:36.267Z,64.09
2024-05-09T09:38:36.304Z,63.69
2024-05-09T09:39:36.279Z,63.92
2024-05-09T09:40:40.456Z,65.12
2024-05-09T09:41:37.221Z,64.79
2024-05-09T09:42:36.261Z,65.16
2024-05-09T09:43:36.197Z,63.76
2024-05-09T09:44:39.533Z,63.76
2024-05-09T09:45:37.228Z,63.56
2024-05-09T09:46:36.195Z,63.56
2024-05-09T09:47:36.266Z,62.19
2024-05-09T09:48:36.287Z,60.89
2024-05-09T09:49:36.282Z,61.79
2024-05-09T09:50:36.126Z,63.17
2024-05-09T09:51:36.137Z,64.69
2024-05-09T09:52:36.096Z,62.09
2024-05-09T09:53:36.084Z,65.06
2024-05-09T09:54:36.151Z,65.56
2024-05-09T09:55:36.075Z,61.73
2024-05-09T09:56:36.063Z,61.73
2024-05-09T09:57:36.093Z,64.00
2024-05-09T09:58:36.096Z,62.53
2024-05-09T09:59:36.030Z,61.13
2024-05-09T10:00:36.236Z,60.83
2024-05-09T10:01:36.245Z,58.24
2024-05-09T10:02:36.118Z,61.43
2024-05-09T10:03:36.157Z,60.53
2024-05-09T10:04:36.077Z,62.13
2024-05-09T10:05:36.153Z,59.64
2024-05-09T10:06:36.066Z,60.71
2024-05-09T10:07:35.958Z,62.13
2024-05-09T10:08:35.932Z,60.14
2024-05-09T10:09:35.929Z,61.21
2024-05-09T10:10:36.572Z,61.41
2024-05-09T10:11:42.090Z,57.67
2024-05-09T10:12:36.961Z,61.57
2024-05-09T10:13:35.978Z,59.06
2024-05-09T10:14:35.869Z,57.87
2024-05-09T10:15:35.886Z,58.86
2024-05-09T10:16:35.919Z,58.94
2024-05-09T10:17:36.122Z,60.63
2024-05-09T10:18:35.990Z,61.13
2024-05-09T10:19:35.940Z,59.64
2024-05-09T10:20:35.900Z,57.81
2024-05-09T10:21:35.911Z,60.41
2024-05-09T10:22:35.779Z,58.78
2024-05-09T10:23:35.792Z,59.38
2024-05-09T10:24:35.832Z,60.68
2024-05-09T10:25:35.794Z,58.31
2024-05-09T10:26:35.808Z,56.61
2024-05-09T10:27:35.758Z,57.51
2024-05-09T10:28:36.121Z,56.91
2024-05-09T10:29:35.707Z,55.81
2024-05-09T10:30:36.735Z,55.64
2024-05-09T10:31:35.706Z,54.06
2024-05-09T10:32:35.746Z,55.59
2024-05-09T10:33:35.768Z,55.59
2024-05-09T10:34:35.743Z,56.16
2024-05-09T10:35:35.672Z,56.04
2024-05-09T10:36:35.732Z,56.04
2024-05-09T10:37:35.700Z,53.12
2024-05-09T10:38:35.644Z,55.79
2024-05-09T10:39:35.647Z,52.12
2024-05-09T10:40:35.671Z,53.69
2024-05-09T10:41:35.603Z,54.69
2024-05-09T10:42:35.576Z,54.57
2024-05-09T10:43:35.556Z,52.72
2024-05-09T10:44:35.548Z,55.21
2024-05-09T10:45:35.637Z,52.29
2024-05-09T10:46:35.553Z,53.36
2024-05-09T10:47:35.613Z,51.67
2024-05-09T10:48:35.621Z,53.84
2024-05-09T10:49:35.553Z,54.83
2024-05-09T10:50:35.520Z,55.76
2024-05-09T10:51:35.487Z,52.76
2024-05-09T10:52:35.461Z,51.27
2024-05-09T10:53:35.482Z,53.69
2024-05-09T10:54:35.620Z,52.64
2024-05-09T10:55:36.372Z,54.54
2024-05-09T10:56:35.419Z,50.95
2024-05-09T10:57:35.538Z,52.32
2024-05-09T10:58:35.402Z,54.41
2024-05-09T10:59:35.397Z,52.76
2024-05-09T11:00:36.491Z,52.29
2024-05-09T11:01:35.524Z,54.69
2024-05-09T11:02:35.486Z,51.20
2024-05-09T11:03:35.953Z,52.47
2024-05-09T11:04:35.403Z,51.54
2024-05-09T11:05:35.477Z,51.25
2024-05-09T11:06:35.390Z,53.71
2024-05-09T11:07:35.311Z,50.73
2024-05-09T11:08:35.313Z,50.74
2024-05-09T11:09:35.354Z,54.34
2024-05-09T11:10:35.360Z,52.12
2024-05-09T11:11:35.347Z,51.15
2024-05-09T11:12:35.285Z,49.85
2024-05-09T11:13:35.276Z,49.38
2024-05-09T11:14:35.232Z,51.35
2024-05-09T11:15:35.275Z,51.45
2024-05-09T11:16:35.239Z,51.07
2024-05-09T11:17:35.381Z,50.90
2024-05-09T11:18:38.274Z,52.72
2024-05-09T11:19:35.325Z,51.62
2024-05-09T11:20:35.705Z,54.34
2024-05-09T11:21:35.236Z,54.14
2024-05-09T11:22:35.187Z,52.92
2024-05-09T11:23:35.161Z,51.22
2024-05-09T11:24:35.162Z,51.22
2024-05-09T11:25:35.133Z,51.89
2024-05-09T11:26:35.111Z,51.10
2024-05-09T11:27:35.182Z,51.87
2024-05-09T11:28:35.117Z,51.87
2024-05-09T11:29:35.099Z,51.02
2024-05-09T11:30:35.102Z,54.49
2024-05-09T11:31:35.139Z,54.29
2024-05-09T11:32:35.306Z,51.20
2024-05-09T11:33:35.088Z,52.19
2024-05-09T11:34:35.110Z,53.96
2024-05-09T11:35:35.043Z,52.79
2024-05-09T11:36:35.120Z,54.89
2024-05-09T11:37:37.162Z,52.02
2024-05-09T11:38:34.996Z,53.29
2024-05-09T11:39:35.011Z,52.17
2024-05-09T11:40:35.117Z,50.87
2024-05-09T11:41:34.951Z,51.54
2024-05-09T11:42:34.949Z,55.13
2024-05-09T11:43:35.030Z,54.21
2024-05-09T11:44:34.926Z,51.82
2024-05-09T11:45:34.956Z,51.72
2024-05-09T11:46:34.930Z,54.34
2024-05-09T11:47:35.011Z,55.16
2024-05-09T11:48:35.060Z,54.44
2024-05-09T11:49:34.961Z,52.87
2024-05-09T11:50:36.052Z,52.76
2024-05-09T11:51:34.894Z,52.76
2024-05-09T11:52:34.885Z,53.66
2024-05-09T11:53:34.818Z,53.34
2024-05-09T11:54:34.846Z,51.45
2024-05-09T11:55:34.869Z,53.84
2024-05-09T11:56:34.795Z,52.62
2024-05-09T11:57:34.818Z,51.72
2024-05-09T11:58:35.025Z,51.62
2024-05-09T11:59:34.758Z,52.72
2024-05-09T12:00:37.424Z,52.81
2024-05-09T12:01:34.831Z,54.34
2024-05-09T12:02:34.842Z,55.33
2024-05-09T12:03:34.954Z,51.35
2024-05-09T12:04:34.788Z,53.77
2024-05-09T12:05:35.066Z,50.17
2024-05-09T12:06:34.745Z,50.79
2024-05-09T12:07:34.668Z,50.92
2024-05-09T12:08:34.658Z,52.62
2024-05-09T12:09:34.746Z,52.52
2024-05-09T12:10:36.259Z,52.69
2024-05-09T12:11:34.669Z,52.59
2024-05-09T12:12:37.108Z,51.87
2024-05-09T12:13:34.690Z,53.96
2024-05-09T12:14:34.633Z,56.06
2024-05-09T12:15:34.621Z,55.63
2024-05-09T12:16:34.676Z,54.16
2024-05-09T12:17:34.632Z,53.17
2024-05-09T12:18:34.631Z,52.87
2024-05-09T12:19:34.711Z,51.57
2024-05-09T12:20:37.882Z,51.97
2024-05-09T12:21:35.558Z,51.45
2024-05-09T12:22:34.524Z,52.25
2024-05-09T12:23:34.500Z,50.85
2024-05-09T12:24:34.521Z,52.14
2024-05-09T12:25:34.517Z,51.84
2024-05-09T12:26:34.468Z,50.47
2024-05-09T12:27:34.493Z,51.27
2024-05-09T12:28:34.449Z,51.57
2024-05-09T12:29:36.279Z,52.49
2024-05-09T12:30:38.123Z,52.49
2024-05-09T12:31:35.533Z,53.17
2024-05-09T12:32:34.484Z,50.20
2024-05-09T12:33:34.507Z,51.72
2024-05-09T12:34:34.397Z,51.92
2024-05-09T12:35:34.426Z,51.52
2024-05-09T12:36:34.448Z,52.62
2024-05-09T12:37:34.367Z,53.42
2024-05-09T12:38:34.350Z,51.59
2024-05-09T12:39:34.410Z,52.59
2024-05-09T12:40:37.516Z,51.70
2024-05-09T12:41:34.317Z,51.70
2024-05-09T12:42:34.431Z,51.97
2024-05-09T12:43:34.377Z,50.87
2024-05-09T12:44:34.311Z,50.90
2024-05-09T12:45:34.363Z,52.69
2024-05-09T12:46:34.329Z,51.89
2024-05-09T12:47:34.404Z,51.50
2024-05-09T12:48:34.530Z,52.49
2024-05-09T12:49:34.360Z,51.70
2024-05-09T12:50:34.923Z,52.82
2024-05-09T12:51:34.242Z,53.12
2024-05-09T12:52:34.200Z,52.12
2024-05-09T12:53:34.200Z,53.02
2024-05-09T12:54:34.234Z,50.82
2024-05-09T12:55:41.271Z,51.92